Time;durP1;ratioP1;P1;durP2;ratioP2;P2;SDS_P1;SDS_P2;PMS_P1;PMS_P2;Temp;Humidity;BMP_temperature;BMP_pressure;BME280_temperature;BME280_humidity;BME280_pressure;Samples;Min_cycle;Max_cycle;Signal;HPM_P1;HPM_P2
2023/04/04 00:02:26;;;;;;;;;;;;;;;;;;6162507;23;20229;-89
2023/04/04 00:05:02;;;;;;;;;;;;;;;;;;6187092;23;19920;-89
2023/04/04 00:07:32;;;;;;;;;;;;;;;;;;6187828;23;19927;-89
2023/04/04 00:10:01;;;;;;;;;;;;;;;;;;6187298;23;19920;-89
2023/04/04 00:12:43;;;;;;;;;;;;;;;;;;6187428;23;20225;-89
2023/04/04 00:15:12;;;;;;;;;;;;;;;;;;6212783;23;19924;-89
2023/04/04 00:17:41;;;;;;;;;;;;;;;;;;6187390;23;20260;-89
2023/04/04 00:20:08;;;;;;;;;;;;;;;;;;6188172;23;19920;-89
2023/04/04 00:22:35;;;;;;;;;;;;;;;;;;6213807;23;20252;-89
2023/04/04 00:25:03;;;;;;;;;;;;;;;;;;6213103;23;19924;-89
2023/04/04 00:27:55;;;;;;;;;;;;;;;;;;6201442;23;20336;-89
2023/04/04 00:30:26;;;;;;;;;;;;;;;;;;6219577;23;19920;-89
2023/04/04 00:32:55;;;;;;;;;;;;;;;;;;6162157;23;19936;-89
2023/04/04 00:35:23;;;;;;;;;;;;;;;;;;6187897;23;19920;-89
2023/04/04 00:37:57;;;;;;;;;;;;;;;;;;6187144;23;20390;-89
2023/04/04 00:40:24;;;;;;;;;;;;;;;;;;6194833;23;20238;-89
2023/04/04 00:42:58;;;;;;;;;;;;;;;;;;6188694;23;19920;-89
2023/04/04 00:45:28;;;;;;;;;;;;;;;;;;6226074;23;19919;-89
2023/04/04 00:48:09;;;;;;;;;;;;;;;;;;6189409;23;19920;-89
2023/04/04 00:50:41;;;;;;;;;;;;;;;;;;6194725;23;20355;-89
2023/04/04 00:53:12;;;;;;;;;;;;;;;;;;6163766;23;20259;-89
2023/04/04 00:55:42;;;;;;;;;;;;;;;;;;6199403;23;19920;-88
2023/04/04 00:58:14;;;;;;;;;;;;;;;;;;6226346;23;19923;-88
2023/04/04 01:00:55;;;;;;;;;;;;;;;;;;;;;
2023/04/04 01:03:23;;;;;;;;;;;;;;;;;;6164257;23;20367;-88
2023/04/04 01:05:53;;;;;;;;;;;;;;;;;;6164241;23;19920;-88
2023/04/04 01:08:23;;;;;;;;;;;;;;;;;;6199297;23;19927;-88
2023/04/04 01:10:50;;;;;;;;;;;;;;;;;;6164631;23;19930;-88
2023/04/04 01:13:23;;;;;;;;;;;;;;;;;;6199861;23;19923;-88
2023/04/04 01:15:55;;;;;;;;;;;;;;;;;;6216169;23;19920;-88
2023/04/04 01:18:22;;;;;;;;;;;;;;;;;;6167550;23;20233;-88
2023/04/04 01:20:56;;;;;;;;;;;;;;;;;;6193189;23;20056;-89
2023/04/04 01:23:24;;;;;;;;;;;;;;;;;;6204451;23;19926;-88
2023/04/04 01:26:01;;;;;;;;;;;;;;;;;;6179654;23;19924;-88
2023/04/04 01:28:28;;;;;;;;;;;;;;;;;;6170553;23;20274;-88
2023/04/04 01:30:55;;;;;;;;;;;;;;;;;;6163569;23;19927;-88
2023/04/04 01:33:29;;;;;;;;;;;;;;;;;;6214003;23;19920;-88
2023/04/04 01:36:00;;;;;;;;;;;;;;;;;;6198364;23;19920;-89
2023/04/04 01:38:28;;;;;;;;;;;;;;;;;;6164179;23;19920;-88
2023/04/04 01:40:58;;;;;;;;;;;;;;;;;;6188502;23;19920;-89
2023/04/04 01:43:31;;;;;;;;;;;;;;;;;;6163306;23;19927;-89
2023/04/04 01:46:01;;;;;;;;;;;;;;;;;;6197908;23;19920;-89
2023/04/04 01:48:29;;;;;;;;;;;;;;;;;;6188720;23;20356;-89
2023/04/04 01:51:00;;;;;;;;;;;;;;;;;;6187426;23;19924;-88
2023/04/04 01:53:28;;;;;;;;;;;;;;;;;;6224213;23;19920;-89
2023/04/04 01:55:58;;;;;;;;;;;;;;;;;;6213554;23;19936;-89
2023/04/04 01:58:27;;;;;;;;;;;;;;;;;;6162521;23;19927;-88
2023/04/04 02:00:55;;;;;;;;;;;;;;;;;;6188308;23;19927;-89
2023/04/04 02:03:22;;;;;;;;;;;;;;;;;;6187682;23;20264;-89
2023/04/04 02:05:49;;;;;;;;;;;;;;;;;;6188376;23;19920;-89
2023/04/04 02:08:16;;;;;;;;;;;;;;;;;;6162477;23;19927;-89
2023/04/04 02:10:50;;;;;;;;;;;;;;;;;;6217319;23;19920;-89
2023/04/04 02:13:18;;;;;;;;;;;;;;;;;;6162547;23;19927;-89
2023/04/04 02:15:49;;;;;;;;;;;;;;;;;;6163508;23;19923;-89
2023/04/04 02:18:17;;;;;;;;;;;;;;;;;;6197139;23;20374;-88
2023/04/04 02:20:44;;;;;;;;;;;;;;;;;;6188181;23;19931;-89
2023/04/04 02:23:11;;;;;;;;;;;;;;;;;;6223813;23;20233;-89
2023/04/04 02:25:38;;;;;;;;;;;;;;;;;;6188240;23;20336;-89
2023/04/04 02:28:05;;;;;;;;;;;;;;;;;;6213828;23;19931;-88
2023/04/04 02:30:32;;;;;;;;;;;;;;;;;;6187654;23;19924;-88
2023/04/04 02:33:01;;;;;;;;;;;;;;;;;;6212696;23;19927;-88
2023/04/04 02:35:29;;;;;;;;;;;;;;;;;;6163634;23;20255;-89
2023/04/04 02:37:56;;;;;;;;;;;;;;;;;;6213111;23;19931;-88
2023/04/04 02:40:28;;;;;;;;;;;;;;;;;;6192944;23;20387;-88
2023/04/04 02:42:55;;;;;;;;;;;;;;;;;;6186515;23;19924;-89
2023/04/04 02:45:22;;;;;;;;;;;;;;;;;;6188554;23;19931;-88
2023/04/04 02:48:02;;;;;;;;;;;;;;;;;;6197514;23;20363;-88
2023/04/04 02:50:38;;;;;;;;;;;;;;;;;;6191451;23;19935;-89
2023/04/04 02:53:05;;;;;;;;;;;;;;;;;;6197010;23;19924;-88
2023/04/04 02:55:35;;;;;;;;;;;;;;;;;;6162948;23;19927;-88
2023/04/04 02:58:02;;;;;;;;;;;;;;;;;;6188126;23;19935;-89
2023/04/04 03:00:30;;;;;;;;;;;;;;;;;;6187716;23;19920;-88
2023/04/04 03:02:57;;;;;;;;;;;;;;;;;;6161462;23;19924;-89
2023/04/04 03:05:32;;;;;;;;;;;;;;;;;;6197949;23;19919;-88
2023/04/04 03:07:59;;;;;;;;;;;;;;;;;;6187672;23;19920;-88
2023/04/04 03:10:29;;;;;;;;;;;;;;;;;;6162071;23;19920;-88
2023/04/04 03:12:56;;;;;;;;;;;;;;;;;;6187079;23;20404;-89
2023/04/04 03:15:24;;;;;;;;;;;;;;;;;;6162594;23;20260;-89
2023/04/04 03:17:51;;;;;;;;;;;;;;;;;;6162676;23;19920;-88
2023/04/04 03:20:22;;;;;;;;;;;;;;;;;;6218270;23;19939;-88
2023/04/04 03:22:50;;;;;;;;;;;;;;;;;;6221252;23;19942;-88
2023/04/04 03:25:17;;;;;;;;;;;;;;;;;;6187792;23;19927;-88
2023/04/04 03:27:44;;;;;;;;;;;;;;;;;;6187254;23;19920;-88
2023/04/04 03:30:19;;;;;;;;;;;;;;;;;;6212211;23;20332;-88
2023/04/04 03:32:46;;;;;;;;;;;;;;;;;;6211662;23;19924;-88
2023/04/04 03:35:13;;;;;;;;;;;;;;;;;;6186637;23;19924;-88
2023/04/04 03:37:41;;;;;;;;;;;;;;;;;;6187724;23;19920;-88
2023/04/04 03:40:10;;;;;;;;;;;;;;;;;;6213169;23;19919;-88
2023/04/04 03:42:37;;;;;;;;;;;;;;;;;;6213002;23;20336;-88
2023/04/04 03:45:09;;;;;;;;;;;;;;;;;;6222585;23;19920;-88
2023/04/04 03:47:37;;;;;;;;;;;;;;;;;;6187466;23;19927;-87
2023/04/04 03:50:05;;;;;;;;;;;;;;;;;;6187031;23;19920;-87
2023/04/04 03:52:37;;;;;;;;;;;;;;;;;;6197500;23;19931;-87
2023/04/04 03:55:04;;;;;;;;;;;;;;;;;;6195390;23;19923;-86
2023/04/04 03:57:35;;;;;;;;;;;;;;;;;;6161950;23;20256;-86
2023/04/04 04:17:48;;;;;;;;;;;;;;;;;;6163848;23;19935;-91
2023/04/04 04:20:29;;;;;;;;;;;;;;;;;;6165471;23;19927;-90
2023/04/04 04:25:45;;;;;;;;;;;;;;;;;;6184109;23;20241;-91
2023/04/04 04:28:19;;;;;;;;;;;;;;;;;;6164281;23;19924;-91
2023/04/04 04:30:56;;;;;;;;;;;;;;;;;;6187541;23;19920;-91
2023/04/04 04:33:29;;;;;;;;;;;;;;;;;;6163738;23;20268;-91
2023/04/04 04:36:02;;;;;;;;;;;;;;;;;;6186533;23;20244;-92
2023/04/04 04:38:44;;;;;;;;;;;;;;;;;;6164066;23;19926;-91
2023/04/04 04:41:17;;;;;;;;;;;;;;;;;;6165162;23;19927;-91
2023/04/04 04:43:52;;;;;;;;;;;;;;;;;;6173371;23;19919;-92
2023/04/04 04:46:23;;;;;;;;;;;;;;;;;;6188381;23;19920;-92
2023/04/04 04:48:52;;;;;;;;;;;;;;;;;;6188695;23;19927;-91
2023/04/04 04:51:26;;;;;;;;;;;;;;;;;;6164371;23;19926;-90
2023/04/04 04:53:57;;;;;;;;;;;;;;;;;;6162894;23;19920;-90
2023/04/04 04:56:26;;;;;;;;;;;;;;;;;;6164556;23;19920;-90
2023/04/04 04:59:01;;;;;;;;;;;;;;;;;;6164238;23;19920;-91
2023/04/04 05:01:31;;;;;;;;;;;;;;;;;;6205271;23;19920;-91
2023/04/04 05:03:58;;;;;;;;;;;;;;;;;;6166642;23;20263;-90
2023/04/04 05:06:34;;;;;;;;;;;;;;;;;;6174197;23;19926;-90
2023/04/04 05:09:01;;;;;;;;;;;;;;;;;;6164511;23;19927;-91
2023/04/04 05:11:35;;;;;;;;;;;;;;;;;;6163565;23;20366;-90
2023/04/04 05:14:07;;;;;;;;;;;;;;;;;;6139501;23;19920;-90
2023/04/04 05:16:46;;;;;;;;;;;;;;;;;;6141844;23;19920;-91
2023/04/04 05:19:17;;;;;;;;;;;;;;;;;;6187769;23;19923;-91
2023/04/04 05:21:51;;;;;;;;;;;;;;;;;;6163315;23;19919;-90
2023/04/04 05:24:31;;;;;;;;;;;;;;;;;;6165652;23;19920;-90
2023/04/04 05:27:00;;;;;;;;;;;;;;;;;;6139528;23;20377;-90
2023/04/04 05:29:34;;;;;;;;;;;;;;;;;;6162158;23;19919;-91
2023/04/04 05:32:04;;;;;;;;;;;;;;;;;;6163098;23;19927;-90
2023/04/04 05:34:34;;;;;;;;;;;;;;;;;;6138446;23;19922;-90
2023/04/04 05:37:06;;;;;;;;;;;;;;;;;;6163544;23;20295;-91
2023/04/04 05:39:35;;;;;;;;;;;;;;;;;;6188592;23;19935;-91
2023/04/04 05:42:09;;;;;;;;;;;;;;;;;;6162476;23;19931;-91
2023/04/04 05:44:43;;;;;;;;;;;;;;;;;;6140183;23;20263;-91
2023/04/04 05:47:15;;;;;;;;;;;;;;;;;;6171199;23;20348;-91
2023/04/04 05:49:50;;;;;;;;;;;;;;;;;;6211526;23;19927;-92
2023/04/04 05:52:20;;;;;;;;;;;;;;;;;;6187295;23;20263;-91
2023/04/04 05:54:48;;;;;;;;;;;;;;;;;;6187502;23;20275;-91
2023/04/04 05:57:24;;;;;;;;;;;;;;;;;;6140690;23;20370;-89
2023/04/04 05:59:57;;;;;;;;;;;;;;;;;;6164656;23;19927;-93
2023/04/04 06:02:49;;;;;;;;;;;;;;;;;;6163576;23;20263;-91
2023/04/04 06:08:31;;;;;;;;;;;;;;;;;;6159795;23;20374;-90
2023/04/04 10:04:58;;;;;;;;;;;;;;;;;;6259199;22;19924;-90
2023/04/04 10:07:26;;;;;;;;;;;;;;;;;;6232471;23;19930;-90
2023/04/04 10:10:05;;;;;;;;;;;;;;;;;;6202552;23;19920;-90
2023/04/04 10:12:33;;;;;;;;;;;;;;;;;;6201864;23;20274;-89
2023/04/04 10:15:07;;;;;;;;;;;;;;;;;;6198997;23;20500;-90
2023/04/04 10:17:40;;;;;;;;;;;;;;;;;;6200502;23;19930;-90
2023/04/04 10:20:12;;;;;;;;;;;;;;;;;;6226516;23;19919;-89
2023/04/04 10:22:39;;;;;;;;;;;;;;;;;;6224444;23;19926;-89
2023/04/04 10:25:08;;;;;;;;;;;;;;;;;;6253762;23;19930;-90
2023/04/04 10:27:37;;;;;;;;;;;;;;;;;;6253533;23;19930;-88
2023/04/04 10:30:10;;;;;;;;;;;;;;;;;;6201995;23;19945;-90
2023/04/04 10:32:38;;;;;;;;;;;;;;;;;;6199935;23;19942;-88
2023/04/04 10:35:10;;;;;;;;;;;;;;;;;;6202548;23;19926;-87
2023/04/04 10:37:47;;;;;;;;;;;;;;;;;;6199652;23;19920;-88
2023/04/04 10:40:16;;;;;;;;;;;;;;;;;;6201744;23;19941;-90
2023/04/04 10:42:48;;;;;;;;;;;;;;;;;;6202333;23;19919;-90
2023/04/04 10:45:17;;;;;;;;;;;;;;;;;;6225376;23;19920;-88
2023/04/04 10:47:45;;;;;;;;;;;;;;;;;;6198442;23;19919;-88
2023/04/04 10:50:12;;;;;;;;;;;;;;;;;;6197199;23;20366;-88
2023/04/04 10:52:44;;;;;;;;;;;;;;;;;;6217216;23;20270;-88
2023/04/04 10:55:24;;;;;;;;;;;;;;;;;;6220893;23;19924;-88
2023/04/04 10:57:56;;;;;;;;;;;;;;;;;;6208991;23;19927;-89
2023/04/04 11:00:29;;;;;;;;;;;;;;;;;;6227353;23;20498;-88
2023/04/04 11:03:00;;;;;;;;;;;;;;;;;;6247884;23;20243;-88
2023/04/04 11:05:31;;;;;;;;;;;;;;;;;;6195831;23;19923;-88
2023/04/04 11:08:05;;;;;;;;;;;;;;;;;;6256164;23;19930;-90
2023/04/04 11:10:35;;;;;;;;;;;;;;;;;;6221167;23;19919;-88
2023/04/04 11:13:06;;;;;;;;;;;;;;;;;;6247737;23;20262;-89
2023/04/04 11:15:45;;;;;;;;;;;;;;;;;;6197533;23;19926;-90
2023/04/04 11:18:12;;;;;;;;;;;;;;;;;;6221465;23;19927;-89
2023/04/04 11:20:45;;;;;;;;;;;;;;;;;;6232450;23;19934;-89
2023/04/04 11:23:18;;;;;;;;;;;;;;;;;;6193684;23;19919;-88
2023/04/04 11:25:52;;;;;;;;;;;;;;;;;;6196397;23;19920;-90
2023/04/04 11:28:43;;;;;;;;;;;;;;;;;;6197263;23;20259;-89
2023/04/04 11:31:26;;;;;;;;;;;;;;;;;;6195923;23;19926;-89
2023/04/04 11:33:55;;;;;;;;;;;;;;;;;;6192651;23;20347;-87
2023/04/04 11:36:43;;;;;;;;;;;;;;;;;;6194785;23;19926;-89
2023/04/04 11:39:22;;;;;;;;;;;;;;;;;;6220721;23;19920;-89
2023/04/04 11:41:53;;;;;;;;;;;;;;;;;;6231142;23;19920;-88
2023/04/04 11:44:21;;;;;;;;;;;;;;;;;;6197079;23;19927;-91
2023/04/04 11:46:55;;;;;;;;;;;;;;;;;;6199016;23;19927;-88
2023/04/04 11:49:28;;;;;;;;;;;;;;;;;;6197036;23;19924;-90
2023/04/04 11:51:56;;;;;;;;;;;;;;;;;;6226344;23;19927;-87
2023/04/04 11:54:28;;;;;;;;;;;;;;;;;;6194836;23;20263;-90
2023/04/04 11:56:58;;;;;;;;;;;;;;;;;;6221527;23;19926;-88
2023/04/04 11:59:31;;;;;;;;;;;;;;;;;;6196582;23;19924;-90
2023/04/04 12:02:01;;;;;;;;;;;;;;;;;;6221378;23;19939;-89
2023/04/04 12:04:28;;;;;;;;;;;;;;;;;;6194064;23;19931;-88
2023/04/04 12:06:59;;;;;;;;;;;;;;;;;;6195614;23;19926;-89
2023/04/04 12:09:27;;;;;;;;;;;;;;;;;;6194648;23;19927;-90
2023/04/04 12:11:56;;;;;;;;;;;;;;;;;;6221886;23;19923;-88
2023/04/04 12:14:49;;;;;;;;;;;;;;;;;;6253677;23;19923;-89
2023/04/04 12:17:19;;;;;;;;;;;;;;;;;;6225612;23;19929;-91
2023/04/04 12:19:46;;;;;;;;;;;;;;;;;;6199375;23;20323;-90
2023/04/04 12:22:16;;;;;;;;;;;;;;;;;;6234527;23;19930;-90
2023/04/04 12:24:45;;;;;;;;;;;;;;;;;;6226045;23;19919;-89
2023/04/04 12:27:21;;;;;;;;;;;;;;;;;;6205198;23;19920;-89
2023/04/04 12:29:49;;;;;;;;;;;;;;;;;;6201256;23;19923;-89
2023/04/04 12:32:16;;;;;;;;;;;;;;;;;;6226574;23;19926;-87
2023/04/04 12:34:44;;;;;;;;;;;;;;;;;;6201949;23;19919;-89
2023/04/04 12:37:15;;;;;;;;;;;;;;;;;;6203491;23;19923;-90
2023/04/04 12:39:49;;;;;;;;;;;;;;;;;;6202946;23;19926;-88
2023/04/04 12:42:20;;;;;;;;;;;;;;;;;;6235003;23;19923;-89
2023/04/04 12:44:50;;;;;;;;;;;;;;;;;;6209348;23;19920;-87
2023/04/04 12:47:22;;;;;;;;;;;;;;;;;;6234859;23;19920;-88
2023/04/04 12:49:50;;;;;;;;;;;;;;;;;;6234432;23;19920;-87
2023/04/04 12:52:20;;;;;;;;;;;;;;;;;;6208971;23;20374;-89
2023/04/04 12:54:50;;;;;;;;;;;;;;;;;;6210311;23;19926;-89
2023/04/04 12:57:17;;;;;;;;;;;;;;;;;;6234466;23;19924;-87
2023/04/04 12:59:45;;;;;;;;;;;;;;;;;;6209073;23;20347;-90
2023/04/04 13:02:18;;;;;;;;;;;;;;;;;;6207910;23;19915;-87
2023/04/04 13:04:53;;;;;;;;;;;;;;;;;;6238200;23;19926;-90
2023/04/04 13:07:21;;;;;;;;;;;;;;;;;;6207874;23;19920;-90
2023/04/04 13:09:53;;;;;;;;;;;;;;;;;;6207582;23;19926;-92
2023/04/04 13:12:23;;;;;;;;;;;;;;;;;;6207934;23;19926;-91
2023/04/04 13:15:00;;;;;;;;;;;;;;;;;;6233486;23;19926;-91
2023/04/04 13:17:38;;;;;;;;;;;;;;;;;;6206649;23;19926;-90
2023/04/04 13:20:07;;;;;;;;;;;;;;;;;;6204822;23;19920;-91
2023/04/04 13:22:39;;;;;;;;;;;;;;;;;;6206270;23;19924;-89
2023/04/04 13:25:10;;;;;;;;;;;;;;;;;;6232522;23;19920;-91
2023/04/04 13:27:41;;;;;;;;;;;;;;;;;;6206310;23;19919;-89
2023/04/04 13:30:09;;;;;;;;;;;;;;;;;;6205094;23;19919;-92
2023/04/04 13:32:42;;;;;;;;;;;;;;;;;;6183391;23;19919;-90
2023/04/04 13:35:13;;;;;;;;;;;;;;;;;;6232730;23;19934;-91
2023/04/04 13:37:45;;;;;;;;;;;;;;;;;;6233197;23;19926;-92
2023/04/04 13:40:19;;;;;;;;;;;;;;;;;;6231616;23;19920;-91
2023/04/04 13:42:46;;;;;;;;;;;;;;;;;;6205159;23;19919;-90
2023/04/04 13:45:13;;;;;;;;;;;;;;;;;;6205356;23;19923;-91
2023/04/04 13:47:46;;;;;;;;;;;;;;;;;;6205956;23;19924;-90
2023/04/04 13:50:13;;;;;;;;;;;;;;;;;;6232876;23;19942;-90
2023/04/04 13:52:41;;;;;;;;;;;;;;;;;;6232431;23;19926;-91
2023/04/04 13:55:08;;;;;;;;;;;;;;;;;;6208798;23;19920;-92
2023/04/04 13:57:40;;;;;;;;;;;;;;;;;;6233668;23;19930;-92
2023/04/04 14:00:11;;;;;;;;;;;;;;;;;;6269174;23;19946;-92
2023/04/04 14:02:41;;;;;;;;;;;;;;;;;;6206273;23;19920;-91
2023/04/04 14:05:26;;;;;;;;;;;;;;;;;;6232148;23;19926;-91
2023/04/04 14:07:56;;;;;;;;;;;;;;;;;;6232551;23;20339;-90
2023/04/04 14:10:28;;;;;;;;;;;;;;;;;;6230651;23;19923;-91
2023/04/04 14:13:00;;;;;;;;;;;;;;;;;;6207685;23;19920;-92
2023/04/04 14:15:28;;;;;;;;;;;;;;;;;;6209143;23;19920;-92
2023/04/04 14:18:15;;;;;;;;;;;;;;;;;;6208032;23;19920;-91
2023/04/04 14:20:55;;;;;;;;;;;;;;;;;;6257879;23;19930;-92
2023/04/04 14:23:23;;;;;;;;;;;;;;;;;;6207128;23;19920;-89
2023/04/04 14:31:21;;;;;;;;;;;;;;;;;;6198561;23;19920;-92
2023/04/04 14:33:49;;;;;;;;;;;;;;;;;;6230718;23;19920;-92
2023/04/04 14:36:17;;;;;;;;;;;;;;;;;;6231422;23;19919;-92
2023/04/04 14:38:45;;;;;;;;;;;;;;;;;;6207291;23;19926;-91
2023/04/04 14:41:16;;;;;;;;;;;;;;;;;;6207698;23;19919;-91
2023/04/04 14:43:48;;;;;;;;;;;;;;;;;;6232017;23;19923;-91
2023/04/04 14:46:17;;;;;;;;;;;;;;;;;;6243233;23;19920;-91
2023/04/04 14:48:54;;;;;;;;;;;;;;;;;;6208298;23;20266;-91
2023/04/04 14:51:22;;;;;;;;;;;;;;;;;;6234116;23;19946;-92
2023/04/04 14:53:51;;;;;;;;;;;;;;;;;;6231097;23;19926;-90
2023/04/04 14:56:23;;;;;;;;;;;;;;;;;;6207905;23;19920;-91
2023/04/04 14:58:58;;;;;;;;;;;;;;;;;;6208553;23;19926;-91
2023/04/04 15:01:26;;;;;;;;;;;;;;;;;;6209465;23;19926;-91
2023/04/04 15:03:54;;;;;;;;;;;;;;;;;;6181787;23;19920;-90
2023/04/04 15:06:34;;;;;;;;;;;;;;;;;;6207352;23;19920;-92
2023/04/04 15:09:06;;;;;;;;;;;;;;;;;;6205791;23;19920;-89
2023/04/04 15:11:35;;;;;;;;;;;;;;;;;;6208189;23;19919;-91
2023/04/04 15:14:04;;;;;;;;;;;;;;;;;;6252856;23;20240;-90
2023/04/04 15:16:36;;;;;;;;;;;;;;;;;;6204689;23;20266;-92
2023/04/04 15:19:04;;;;;;;;;;;;;;;;;;6204491;23;20335;-90
2023/04/04 15:21:33;;;;;;;;;;;;;;;;;;6206638;23;19946;-92
2023/04/04 15:26:46;;;;;;;;;;;;;;;;;;6232615;23;19923;-92
2023/04/04 15:29:18;;;;;;;;;;;;;;;;;;6205346;23;19919;-91
2023/04/04 15:31:46;;;;;;;;;;;;;;;;;;6230425;23;19923;-92
2023/04/04 15:34:13;;;;;;;;;;;;;;;;;;6206622;23;19972;-91
2023/04/04 15:36:43;;;;;;;;;;;;;;;;;;6208476;23;19943;-91
2023/04/04 15:39:14;;;;;;;;;;;;;;;;;;6206632;23;19927;-91
2023/04/04 15:41:52;;;;;;;;;;;;;;;;;;6183768;23;22126;-89
2023/04/04 15:47:11;;;;;;;;;;;;;;;;;;6209537;23;19919;-92
2023/04/04 15:49:39;;;;;;;;;;;;;;;;;;6209228;23;19926;-91
2023/04/04 15:52:08;;;;;;;;;;;;;;;;;;6233550;23;19919;-92
2023/04/04 15:54:38;;;;;;;;;;;;;;;;;;6237684;23;19919;-91
2023/04/04 15:57:06;;;;;;;;;;;;;;;;;;6208834;23;19920;-90
2023/04/04 15:59:35;;;;;;;;;;;;;;;;;;6211320;23;19926;-92
2023/04/04 18:25:21;;;;;;;;;;;;;;;;;;6214884;23;19920;-90
2023/04/04 18:27:49;;;;;;;;;;;;;;;;;;6196915;23;20244;-92
2023/04/04 18:30:34;;;;;;;;;;;;;;;;;;6225920;23;19926;-93
2023/04/04 19:16:56;;;;;;;;;;;;;;;;;;6002650;23;20240;-93
2023/04/04 19:23:56;;;;;;;;;;;;;;;;;;;;;
2023/04/04 19:26:53;;;;;;;;;;;;;;;;;;6036398;23;19949;-92
2023/04/04 19:29:27;;;;;;;;;;;;;;;;;;6109719;23;19921;-93
2023/04/04 19:31:59;;;;;;;;;;;;;;;;;;6125828;23;19932;-93
2023/04/04 19:34:37;;;;;;;;;;;;;;;;;;6102902;23;19928;-93
2023/04/04 19:37:28;;;;;;;;;;;;;;;;;;6131893;23;19953;-93
2023/04/04 19:40:04;;;;;;;;;;;;;;;;;;6180746;23;19920;-93
2023/04/04 19:42:37;;;;;;;;;;;;;;;;;;6245232;23;20370;-92
2023/04/04 19:45:12;;;;;;;;;;;;;;;;;;6227407;23;19920;-93
2023/04/04 19:47:51;;;;;;;;;;;;;;;;;;;;;
2023/04/04 19:50:35;;;;;;;;;;;;;;;;;;6220417;23;19926;-93
2023/04/04 19:53:25;;;;;;;;;;;;;;;;;;6193140;23;20225;-93
2023/04/04 19:56:01;;;;;;;;;;;;;;;;;;6244382;23;19935;-93
2023/04/04 19:58:28;;;;;;;;;;;;;;;;;;6221627;23;19923;-93
2023/04/04 20:00:56;;;;;;;;;;;;;;;;;;6217828;23;19927;-93
2023/04/04 20:03:28;;;;;;;;;;;;;;;;;;6245065;23;19920;-93
2023/04/04 20:05:59;;;;;;;;;;;;;;;;;;6244469;23;19927;-90
2023/04/04 20:15:32;;;;;;;;;;;;;;;;;;6246944;23;20252;-93
2023/04/04 20:25:36;;;;;;;;;;;;;;;;;;6138374;23;20323;-93
2023/04/04 20:28:07;;;;;;;;;;;;;;;;;;6156558;23;19920;-93
2023/04/04 20:30:56;;;;;;;;;;;;;;;;;;6181986;23;19931;-93
2023/04/04 20:33:56;;;;;;;;;;;;;;;;;;6223072;23;19931;-93
2023/04/04 20:36:31;;;;;;;;;;;;;;;;;;6162821;23;19920;-93
2023/04/04 20:39:08;;;;;;;;;;;;;;;;;;6186340;23;20336;-94
2023/04/04 20:42:43;;;;;;;;;;;;;;;;;;;;;
2023/04/04 20:49:32;;;;;;;;;;;;;;;;;;6113918;23;19966;-92
2023/04/04 20:52:06;;;;;;;;;;;;;;;;;;6153720;23;19924;-92
2023/04/04 20:54:48;;;;;;;;;;;;;;;;;;6162865;23;20256;-93
2023/04/04 20:57:30;;;;;;;;;;;;;;;;;;;;;
2023/04/04 20:59:59;;;;;;;;;;;;;;;;;;6211289;23;19931;-93
2023/04/04 21:14:02;;;;;;;;;;;;;;;;;;;;;
2023/04/04 21:16:47;;;;;;;;;;;;;;;;;;5976792;24;19922;-93
2023/04/04 21:19:34;;;;;;;;;;;;;;;;;;6028882;23;19921;-93
2023/04/04 21:22:42;;;;;;;;;;;;;;;;;;;;;
2023/04/04 21:29:21;;;;;;;;;;;;;;;;;;;;;
2023/04/04 21:35:56;;;;;;;;;;;;;;;;;;6098079;23;19925;-93
2023/04/04 21:42:52;;;;;;;;;;;;;;;;;;;;;
2023/04/04 22:02:25;;;;;;;;;;;;;;;;;;6041704;23;20368;-88
2023/04/04 22:04:52;;;;;;;;;;;;;;;;;;6188205;23;19927;-88
2023/04/04 22:07:19;;;;;;;;;;;;;;;;;;6214922;23;20416;-88
2023/04/04 22:09:46;;;;;;;;;;;;;;;;;;6189042;23;19920;-88
2023/04/04 22:12:14;;;;;;;;;;;;;;;;;;6187901;23;19927;-88
2023/04/04 22:14:42;;;;;;;;;;;;;;;;;;6188246;23;19920;-88
2023/04/04 22:17:21;;;;;;;;;;;;;;;;;;6188719;23;19920;-88
2023/04/04 22:19:57;;;;;;;;;;;;;;;;;;6226382;23;19924;-87
2023/04/04 22:22:28;;;;;;;;;;;;;;;;;;6163827;23;19920;-87
2023/04/04 22:25:01;;;;;;;;;;;;;;;;;;6214740;23;20233;-87
2023/04/04 22:27:30;;;;;;;;;;;;;;;;;;6188059;23;20241;-87
2023/04/04 22:29:57;;;;;;;;;;;;;;;;;;6215096;23;19924;-87
2023/04/04 22:32:24;;;;;;;;;;;;;;;;;;6188327;23;19924;-87
2023/04/04 22:34:53;;;;;;;;;;;;;;;;;;6188416;23;19927;-88
2023/04/04 22:37:21;;;;;;;;;;;;;;;;;;6188589;23;19920;-87
2023/04/04 22:39:48;;;;;;;;;;;;;;;;;;6214959;23;19927;-87
2023/04/04 22:42:15;;;;;;;;;;;;;;;;;;6218790;23;19927;-88
2023/04/04 22:44:42;;;;;;;;;;;;;;;;;;6162789;23;19927;-87
2023/04/04 22:47:10;;;;;;;;;;;;;;;;;;6215280;23;19920;-88
2023/04/04 22:49:44;;;;;;;;;;;;;;;;;;6215506;23;19920;-87
2023/04/04 22:52:14;;;;;;;;;;;;;;;;;;6192813;23;19935;-88
2023/04/04 22:54:41;;;;;;;;;;;;;;;;;;6188133;23;19931;-87
2023/04/04 22:57:08;;;;;;;;;;;;;;;;;;6214949;23;19927;-87
2023/04/04 22:59:35;;;;;;;;;;;;;;;;;;6189417;23;19927;-87
2023/04/04 23:02:02;;;;;;;;;;;;;;;;;;6219135;23;20255;-88
2023/04/04 23:04:29;;;;;;;;;;;;;;;;;;6187342;23;19924;-88
2023/04/04 23:06:56;;;;;;;;;;;;;;;;;;6213541;23;19919;-87
2023/04/04 23:09:24;;;;;;;;;;;;;;;;;;6163656;23;19920;-87
2023/04/04 23:11:51;;;;;;;;;;;;;;;;;;6214005;23;19927;-88
2023/04/04 23:14:21;;;;;;;;;;;;;;;;;;6187833;23;19920;-87
2023/04/04 23:16:51;;;;;;;;;;;;;;;;;;6187277;23;19939;-87
2023/04/04 23:19:18;;;;;;;;;;;;;;;;;;6224824;23;19920;-88
2023/04/04 23:21:47;;;;;;;;;;;;;;;;;;6213989;23;19927;-87
2023/04/04 23:24:16;;;;;;;;;;;;;;;;;;6214400;23;19931;-87
2023/04/04 23:26:45;;;;;;;;;;;;;;;;;;6213596;23;20355;-88
2023/04/04 23:29:12;;;;;;;;;;;;;;;;;;6187275;23;20359;-88
2023/04/04 23:31:41;;;;;;;;;;;;;;;;;;6214696;23;20356;-88
2023/04/04 23:34:08;;;;;;;;;;;;;;;;;;6186831;23;19920;-88
2023/04/04 23:36:35;;;;;;;;;;;;;;;;;;6162970;23;19927;-88
2023/04/04 23:39:04;;;;;;;;;;;;;;;;;;6161280;23;19924;-88
2023/04/04 23:41:34;;;;;;;;;;;;;;;;;;6187510;23;19927;-87
2023/04/04 23:44:02;;;;;;;;;;;;;;;;;;6162486;23;19930;-88
2023/04/04 23:46:31;;;;;;;;;;;;;;;;;;6187607;23;19927;-88
2023/04/04 23:48:58;;;;;;;;;;;;;;;;;;6213877;23;19935;-88
2023/04/04 23:51:29;;;;;;;;;;;;;;;;;;6214216;23;19920;-88
2023/04/04 23:54:01;;;;;;;;;;;;;;;;;;6162739;23;20260;-88
2023/04/04 23:56:28;;;;;;;;;;;;;;;;;;6213891;23;19919;-88
2023/04/04 23:58:55;;;;;;;;;;;;;;;;;;6187706;23;19931;-88
